Time;durP1;ratioP1;P1;durP2;ratioP2;P2;SDS_P1;SDS_P2;PMS_P1;PMS_P2;Temp;Humidity;BMP_temperature;BMP_pressure;BME280_temperature;BME280_humidity;BME280_pressure;Samples;Min_cycle;Max_cycle;Signal;HPM_P1;HPM_P2
2022/03/09 00:00:17;;;;;;;8.35;7.38;;;4.50;99.90;;;;;;5010334;28;20200;-89
2022/03/09 00:02:43;;;;;;;9.70;7.47;;;3.20;99.90;;;;;;5011230;28;20659;-89
2022/03/09 00:05:09;;;;;;;8.63;7.10;;;2.00;99.90;;;;;;5009522;28;20476;-89
2022/03/09 00:07:35;;;;;;;9.80;8.75;;;4.00;99.90;;;;;;5011537;28;20572;-89
2022/03/09 00:10:01;;;;;;;11.70;9.97;;;2.10;99.90;;;;;;4991797;28;20318;-89
2022/03/09 00:12:27;;;;;;;11.25;9.77;;;1.90;99.90;;;;;;5011426;28;20413;-89
2022/03/09 00:14:53;;;;;;;9.93;8.90;;;1.30;99.90;;;;;;4992067;28;20667;-89
2022/03/09 00:17:19;;;;;;;10.45;9.38;;;3.40;99.90;;;;;;5000630;28;20667;-89
2022/03/09 00:19:45;;;;;;;10.90;9.77;;;1.30;99.90;;;;;;4993587;28;20193;-89
2022/03/09 00:22:11;;;;;;;10.13;8.17;;;1.70;99.90;;;;;;4991079;28;20656;-89
2022/03/09 00:24:36;;;;;;;8.93;8.03;;;2.00;99.90;;;;;;4992211;28;20220;-89
2022/03/09 00:27:02;;;;;;;11.23;8.57;;;1.70;99.90;;;;;;4987155;28;20440;-88
2022/03/09 00:29:28;;;;;;;9.70;8.70;;;2.40;99.90;;;;;;4991896;28;20246;-89
2022/03/09 00:31:54;;;;;;;10.10;8.33;;;1.90;99.90;;;;;;5008788;28;20735;-89
2022/03/09 00:34:19;;;;;;;11.93;10.13;;;4.40;99.90;;;;;;5010143;28;20199;-89
2022/03/09 00:36:45;;;;;;;10.47;8.53;;;1.90;99.90;;;;;;5002465;28;20287;-89
2022/03/09 00:39:11;;;;;;;10.43;9.37;;;1.70;99.90;;;;;;5009479;28;20596;-89
2022/03/09 00:41:37;;;;;;;11.35;9.52;;;3.40;99.90;;;;;;5008485;28;20512;-88
2022/03/09 00:44:05;;;;;;;10.13;9.13;;;1.40;99.90;;;;;;5010123;28;20304;-87
2022/03/09 00:46:32;;;;;;;10.63;9.30;;;3.40;99.90;;;;;;4980837;28;20213;-87
2022/03/09 00:48:57;;;;;;;12.45;9.50;;;1.40;99.90;;;;;;4992639;28;20649;-87
2022/03/09 00:51:24;;;;;;;10.13;8.52;;;3.10;99.90;;;;;;5009458;28;20314;-89
2022/03/09 00:53:49;;;;;;;11.83;10.67;;;1.50;99.90;;;;;;5010345;28;20199;-88
2022/03/09 00:56:15;;;;;;;10.33;9.20;;;1.80;99.90;;;;;;4991786;28;20472;-89
2022/03/09 00:58:41;;;;;;;11.13;8.90;;;1.80;99.90;;;;;;5011591;28;20183;-89
2022/03/09 01:01:09;;;;;;;14.20;9.45;;;4.50;99.90;;;;;;4994640;28;20197;-89
2022/03/09 01:03:34;;;;;;;16.17;8.93;;;0.50;99.90;;;;;;4993125;28;20197;-88
2022/03/09 01:06:00;;;;;;;11.07;8.63;;;1.70;99.90;;;;;;4991125;28;20683;-88
2022/03/09 01:08:26;;;;;;;10.87;9.70;;;1.10;99.90;;;;;;4993388;28;20194;-89
2022/03/09 01:10:52;;;;;;;12.47;8.53;;;1.10;99.90;;;;;;5009125;28;20458;-89
2022/03/09 01:13:18;;;;;;;10.98;8.70;;;1.60;99.90;;;;;;4995551;28;20192;-88
2022/03/09 01:15:43;;;;;;;9.10;8.17;;;1.40;99.90;;;;;;4992084;28;20201;-88
2022/03/09 01:18:09;;;;;;;8.90;8.10;;;;;;;;;;5016360;28;20447;-89
2022/03/09 01:20:35;;;;;;;10.80;9.00;;;1.90;99.90;;;;;;4995005;28;20235;-88
2022/03/09 01:23:01;;;;;;;9.40;8.40;;;;;;;;;;4997701;28;20432;-89
2022/03/09 01:25:27;;;;;;;9.73;8.80;;;2.00;99.90;;;;;;4992661;28;20220;-87
2022/03/09 01:27:52;;;;;;;10.43;8.90;;;1.20;99.90;;;;;;4988718;28;20444;-88
2022/03/09 01:30:18;;;;;;;10.47;6.90;;;2.10;99.90;;;;;;5008465;28;20224;-87
2022/03/09 01:32:44;;;;;;;8.50;7.67;;;0.40;99.90;;;;;;4992288;28;20622;-88
2022/03/09 01:35:10;;;;;;;6.73;6.10;;;1.50;99.90;;;;;;4990285;28;20948;-88
2022/03/09 01:37:35;;;;;;;5.60;5.20;;;1.80;99.90;;;;;;4992666;28;20220;-88
2022/03/09 01:40:01;;;;;;;5.10;4.80;;;1.70;98.80;;;;;;4990213;28;20543;-88
2022/03/09 01:42:27;;;;;;;9.30;5.15;;;3.40;96.70;;;;;;4991434;28;20869;-88
2022/03/09 01:44:53;;;;;;;5.00;4.67;;;3.40;94.20;;;;;;4989268;28;20463;-88
2022/03/09 01:47:19;;;;;;;5.27;4.80;;;6.30;92.90;;;;;;4981241;28;20874;-88
2022/03/09 01:49:44;;;;;;;4.90;4.37;;;3.30;83.30;;;;;;4990377;28;20193;-88
2022/03/09 01:52:11;;;;;;;5.33;4.90;;;4.50;78.60;;;;;;4989546;28;20422;-89
2022/03/09 01:54:39;;;;;;;3.13;2.78;;;7.60;77.50;;;;;;4992145;28;20567;-88
2022/03/09 01:57:05;;;;;;;5.13;4.65;;;5.70;70.60;;;;;;4990462;28;20196;-87
2022/03/09 01:59:30;;;;;;;5.60;5.10;;;4.90;64.60;;;;;;5009842;28;20330;-88
2022/03/09 02:01:56;;;;;;;5.43;5.10;;;6.90;65.80;;;;;;4989261;28;20232;-89
2022/03/09 02:04:22;;;;;;;6.07;5.47;;;4.40;59.60;;;;;;5008811;28;20211;-88
2022/03/09 02:06:47;;;;;;;5.17;4.60;;;4.90;58.50;;;;;;4989795;28;20207;-89
2022/03/09 02:11:57;;;;;;;5.55;5.13;;;5.40;57.30;;;;;;5006857;28;20199;-89
2022/03/09 02:14:43;;;;;;;5.63;5.22;;;7.30;56.60;;;;;;4987284;28;20776;-89
2022/03/09 02:17:14;;;;;;;4.97;4.67;;;5.60;55.20;;;;;;4988388;28;20199;-89
2022/03/09 02:19:42;;;;;;;4.80;4.50;;;4.80;54.00;;;;;;4990321;28;20414;-89
2022/03/09 02:22:19;;;;;;;5.60;5.20;;;5.40;53.60;;;;;;4987978;28;20193;-88
2022/03/09 02:24:46;;;;;;;5.07;4.78;;;5.70;53.90;;;;;;4997726;28;20307;-89
2022/03/09 02:27:12;;;;;;;5.28;4.88;;;7.10;54.20;;;;;;4986210;28;20192;-88
2022/03/09 02:29:39;;;;;;;5.77;5.27;;;5.50;53.70;;;;;;5007929;28;20553;-89
2022/03/09 02:32:05;;;;;;;5.20;4.70;;;5.10;53.50;;;;;;4982790;28;20668;-89
2022/03/09 02:34:31;;;;;;;5.10;4.70;;;5.50;54.10;;;;;;4990735;28;20413;-89
2022/03/09 02:36:57;;;;;;;5.40;4.50;;;4.70;52.50;;;;;;4997858;28;20459;-89
2022/03/09 02:39:23;;;;;;;5.80;4.87;;;7.10;54.10;;;;;;5007614;28;20995;-89
2022/03/09 02:41:48;;;;;;;5.03;4.50;;;6.80;53.60;;;;;;5001684;28;20406;-89
2022/03/09 02:44:14;;;;;;;6.00;5.47;;;4.80;51.70;;;;;;4990182;28;20211;-89
2022/03/09 02:46:40;;;;;;;5.37;4.90;;;5.20;52.00;;;;;;4982351;28;20290;-89
2022/03/09 02:49:05;;;;;;;7.70;4.73;;;6.00;52.30;;;;;;5007552;28;20394;-89
2022/03/09 02:51:32;;;;;;;5.80;5.10;;;5.10;51.70;;;;;;4989219;28;20244;-89
2022/03/09 02:53:58;;;;;;;5.23;4.83;;;4.60;52.00;;;;;;4990059;28;20758;-89
2022/03/09 02:56:23;;;;;;;5.57;5.17;;;5.20;51.10;;;;;;4988715;28;20975;-89
2022/03/09 02:58:49;;;;;;;6.27;5.67;;;5.40;51.90;;;;;;4989279;28;20536;-87
2022/03/09 03:01:15;;;;;;;5.17;4.67;;;5.40;51.50;;;;;;4991813;28;20184;-88
2022/03/09 03:03:42;;;;;;;5.60;5.20;;;4.80;51.30;;;;;;5009925;28;20251;-88
2022/03/09 03:06:09;;;;;;;5.05;4.75;;;5.00;50.60;;;;;;4978461;28;20282;-88
2022/03/09 03:08:35;;;;;;;4.90;4.60;;;7.00;51.60;;;;;;4994315;28;20180;-88
2022/03/09 03:11:00;;;;;;;4.77;4.57;;;8.10;52.30;;;;;;5011134;28;20414;-88
2022/03/09 03:13:27;;;;;;;5.73;5.33;;;8.30;52.60;;;;;;5007510;28;20460;-88
2022/03/09 03:15:53;;;;;;;6.03;5.53;;;6.70;51.60;;;;;;4992585;28;20196;-88
2022/03/09 03:18:19;;;;;;;6.07;5.43;;;7.80;51.90;;;;;;4990759;28;20185;-88
2022/03/09 03:20:44;;;;;;;6.30;5.80;;;6.50;51.40;;;;;;5010339;28;20443;-88
2022/03/09 03:23:10;;;;;;;6.10;5.60;;;7.70;52.40;;;;;;4994020;28;20177;-88
2022/03/09 03:25:36;;;;;;;9.10;4.90;;;8.00;52.60;;;;;;4992334;28;20216;-88
2022/03/09 03:28:01;;;;;;;5.37;4.93;;;5.80;51.20;;;;;;5010077;28;20181;-88
2022/03/09 03:30:27;;;;;;;5.87;5.37;;;5.20;50.20;;;;;;4991337;28;20196;-88
2022/03/09 03:32:53;;;;;;;5.97;5.57;;;5.10;50.40;;;;;;4993750;28;20187;-89
2022/03/09 03:35:18;;;;;;;5.40;5.10;;;6.50;51.60;;;;;;4991794;28;20188;-89
2022/03/09 03:37:44;;;;;;;5.90;5.10;;;5.10;50.50;;;;;;4993612;28;20271;-89
2022/03/09 03:40:10;;;;;;;6.20;5.70;;;4.00;50.60;;;;;;4991850;28;20215;-88
2022/03/09 03:42:35;;;;;;;13.10;5.60;;;4.00;51.00;;;;;;4994015;28;20191;-88
2022/03/09 03:45:01;;;;;;;5.30;4.90;;;4.50;51.10;;;;;;5010263;28;20989;-88
2022/03/09 03:47:26;;;;;;;5.30;5.00;;;4.40;51.40;;;;;;5011489;28;20196;-88
2022/03/09 03:49:52;;;;;;;5.40;5.00;;;6.00;52.10;;;;;;5010198;28;20186;-88
2022/03/09 03:52:18;;;;;;;6.27;5.80;;;4.70;50.90;;;;;;5011393;28;20263;-89
2022/03/09 03:54:43;;;;;;;5.63;5.13;;;4.00;50.80;;;;;;4993706;28;20575;-89
2022/03/09 03:57:09;;;;;;;5.37;4.97;;;6.40;52.20;;;;;;5005935;28;20255;-89
2022/03/09 03:59:35;;;;;;;5.23;4.80;;;3.90;51.10;;;;;;4995186;28;20223;-88
2022/03/09 04:02:01;;;;;;;5.30;4.80;;;3.70;50.80;;;;;;5009894;28;20567;-88
2022/03/09 04:04:26;;;;;;;6.43;6.03;;;4.30;50.90;;;;;;4992593;28;20585;-89
2022/03/09 04:06:52;;;;;;;5.60;5.17;;;6.30;52.70;;;;;;4981635;28;20410;-87
2022/03/09 04:09:17;;;;;;;6.00;5.67;;;4.80;51.10;;;;;;4993928;28;20196;-88
2022/03/09 04:11:46;;;;;;;5.70;5.30;;;3.70;50.00;;;;;;5002275;28;20296;-88
2022/03/09 04:14:12;;;;;;;5.13;4.82;;;3.50;49.80;;;;;;5011427;28;20176;-88
2022/03/09 04:16:37;;;;;;;5.53;5.13;;;3.90;49.60;;;;;;4999816;28;20257;-89
2022/03/09 04:19:03;;;;;;;5.33;5.00;;;4.30;49.80;;;;;;5011595;28;20212;-88
2022/03/09 04:21:29;;;;;;;6.10;5.23;;;4.10;50.10;;;;;;5010468;28;20203;-88
2022/03/09 04:23:54;;;;;;;7.80;6.20;;;4.50;50.60;;;;;;5014074;28;20188;-88
2022/03/09 04:26:20;;;;;;;4.90;4.60;;;4.30;51.40;;;;;;5007149;28;20242;-88
2022/03/09 04:28:45;;;;;;;9.30;5.53;;;4.10;50.20;;;;;;5012194;28;20184;-88
2022/03/09 04:31:11;;;;;;;5.73;5.17;;;4.10;50.60;;;;;;4991521;28;20280;-88
2022/03/09 04:33:40;;;;;;;5.37;4.87;;;5.20;52.20;;;;;;4993016;28;20690;-88
2022/03/09 04:36:06;;;;;;;6.60;5.40;;;5.60;52.90;;;;;;4991121;28;20467;-88
2022/03/09 04:38:31;;;;;;;4.97;4.60;;;4.80;51.30;;;;;;5009526;28;20420;-88
2022/03/09 04:41:00;;;;;;;8.17;5.20;;;5.90;52.00;;;;;;4980964;28;20193;-87
2022/03/09 04:43:26;;;;;;;5.25;4.85;;;3.70;50.40;;;;;;4992842;28;20680;-88
2022/03/09 04:45:55;;;;;;;5.17;4.83;;;4.40;50.30;;;;;;4991116;28;20220;-88
2022/03/09 04:48:20;;;;;;;6.07;5.65;;;4.40;50.70;;;;;;4992238;28;20258;-88
2022/03/09 04:50:46;;;;;;;6.20;5.70;;;6.30;52.50;;;;;;5010092;28;20213;-88
2022/03/09 04:53:11;;;;;;;5.70;5.23;;;3.80;51.30;;;;;;4992540;28;20176;-89
2022/03/09 04:55:37;;;;;;;6.37;5.87;;;3.40;50.60;;;;;;4991726;28;20211;-88
2022/03/09 04:58:03;;;;;;;5.93;5.47;;;3.70;50.10;;;;;;4981377;28;20193;-88
2022/03/09 05:00:29;;;;;;;10.03;5.63;;;4.20;51.70;;;;;;5011318;28;20215;-89
2022/03/09 05:02:55;;;;;;;6.72;5.00;;;4.90;51.50;;;;;;5024434;28;20383;-87
2022/03/09 05:05:21;;;;;;;6.30;5.77;;;3.80;50.00;;;;;;5012512;28;20240;-88
2022/03/09 05:07:46;;;;;;;6.07;5.73;;;6.60;51.90;;;;;;4994842;28;20431;-88
2022/03/09 05:10:12;;;;;;;6.47;5.80;;;4.00;49.80;;;;;;4991827;28;20191;-89
2022/03/09 05:12:38;;;;;;;11.83;5.80;;;4.00;51.10;;;;;;4996709;28;20181;-87
2022/03/09 05:15:04;;;;;;;5.63;5.17;;;6.60;51.90;;;;;;5031172;28;20244;-88
2022/03/09 05:17:40;;;;;;;6.30;5.80;;;4.60;54.10;;;;;;5024834;28;20679;-88
2022/03/09 05:20:06;;;;;;;6.00;5.40;;;3.40;52.70;;;;;;4989437;28;20184;-88
2022/03/09 05:22:32;;;;;;;9.75;5.63;;;4.30;54.30;;;;;;4989818;28;20454;-88
2022/03/09 05:24:57;;;;;;;6.47;5.57;;;3.70;55.20;;;;;;4990888;28;20323;-88
2022/03/09 05:27:27;;;;;;;5.53;5.17;;;2.60;55.10;;;;;;5006299;28;20709;-88
2022/03/09 05:29:53;;;;;;;6.63;5.20;;;3.30;56.10;;;;;;4971254;28;20207;-88
2022/03/09 05:33:10;;;;;;;6.10;5.53;;;3.90;57.00;;;;;;5015940;28;20172;-92
2022/03/09 05:35:38;;;;;;;15.32;5.43;;;4.00;58.30;;;;;;5003272;28;20184;-90
2022/03/09 05:38:04;;;;;;;7.35;6.28;;;6.00;66.70;;;;;;5016226;28;20184;-90
2022/03/09 05:40:30;;;;;;;6.20;5.70;;;2.70;61.20;;;;;;5033409;28;20179;-93
2022/03/09 05:42:56;;;;;;;7.57;6.22;;;5.70;65.20;;;;;;5032496;28;20189;-92
2022/03/09 05:45:22;;;;;;;6.90;6.30;;;;;;;;;;5046811;28;20195;-93
2022/03/09 05:47:54;;;;;;;6.25;5.63;;;3.30;58.20;;;;;;5014351;28;20431;-92
2022/03/09 05:50:20;;;;;;;7.35;6.00;;;4.30;73.90;;;;;;4996021;28;20197;-92
2022/03/09 05:53:03;;;;;;;6.38;5.53;;;5.40;64.90;;;;;;5034629;28;20195;-91
2022/03/09 05:55:34;;;;;;;8.57;5.40;;;4.90;66.70;;;;;;5031665;28;20196;-92
2022/03/09 05:58:04;;;;;;;7.25;6.55;;;3.40;67.20;;;;;;5015169;28;20185;-92
2022/03/09 06:00:35;;;;;;;6.40;5.18;;;5.10;69.40;;;;;;4996419;28;20196;-92
2022/03/09 06:03:06;;;;;;;5.93;5.38;;;3.10;72.10;;;;;;5011219;28;20188;-91
2022/03/09 06:05:32;;;;;;;8.70;5.03;;;2.50;67.90;;;;;;4995724;28;20228;-91
2022/03/09 06:07:58;;;;;;;7.30;6.60;;;2.40;69.10;;;;;;5006661;28;20201;-91
2022/03/09 06:10:31;;;;;;;7.00;6.30;;;3.80;74.60;;;;;;5013465;28;20180;-91
2022/03/09 06:13:01;;;;;;;5.97;5.32;;;4.00;72.60;;;;;;5015205;28;20187;-91
2022/03/09 06:15:30;;;;;;;7.45;5.20;;;3.20;69.10;;;;;;4995462;28;20215;-92
2022/03/09 06:18:12;;;;;;;5.50;5.10;;;2.80;74.40;;;;;;5029636;28;20248;-94
2022/03/09 06:20:43;;;;;;;5.47;5.10;;;3.00;75.20;;;;;;5026846;28;20211;-93
2022/03/09 06:23:18;;;;;;;6.28;5.80;;;3.20;87.90;;;;;;5001793;23;20229;-83
2022/03/09 06:25:56;;;;;;;13.10;6.90;;;4.10;68.90;;;;;;4983897;28;20217;-83
2022/03/09 06:29:05;;;;;;;6.63;5.93;;;4.10;71.20;;;;;;4983486;28;20552;-82
2022/03/09 06:32:00;;;;;;;;;;;;;;;;;;;;;
2022/03/09 06:35:04;;;;;;;10.05;7.80;;;4.70;60.50;;;;;;4983899;28;20230;-84
2022/03/09 06:37:50;;;;;;;6.90;6.40;;;5.50;69.30;;;;;;4974946;28;20181;-84
2022/03/09 06:40:25;;;;;;;9.48;5.30;;;3.20;59.00;;;;;;4997693;28;20739;-85
2022/03/09 06:42:54;;;;;;;6.35;5.75;;;4.10;58.80;;;;;;4997531;28;20526;-80
2022/03/09 06:45:34;;;;;;;6.35;5.70;;;2.70;59.70;;;;;;4984146;28;20308;-83
2022/03/09 06:48:08;;;;;;;7.80;5.75;;;8.20;68.70;;;;;;4996728;28;20397;-84
2022/03/09 06:50:36;;;;;;;6.05;5.43;;;4.60;55.30;;;;;;4983925;28;20672;-85
2022/03/09 06:53:02;;;;;;;5.72;5.25;;;7.90;58.80;;;;;;4982398;28;20196;-82
2022/03/09 06:55:42;;;;;;;5.35;5.05;;;8.30;57.20;;;;;;5000226;28;20247;-83
2022/03/09 06:58:20;;;;;;;7.15;6.13;;;5.80;55.00;;;;;;4979258;28;20208;-84
2022/03/09 07:00:57;;;;;;;7.83;6.40;;;7.20;55.20;;;;;;4998114;28;20216;-83
2022/03/09 07:03:41;;;;;;;8.10;7.33;;;7.50;50.40;;;;;;4980005;28;20439;-84
2022/03/09 07:06:33;;;;;;;6.60;5.87;;;9.00;53.60;;;;;;4980527;28;20479;-84
2022/03/09 07:09:16;;;;;;;7.97;7.20;;;9.00;45.80;;;;;;4977725;28;20432;-84
2022/03/09 07:11:44;;;;;;;7.20;6.70;;;10.30;45.70;;;;;;4986602;28;20445;-85
2022/03/09 07:14:24;;;;;;;9.30;8.40;;;10.20;43.30;;;;;;4997300;28;20455;-85
2022/03/09 07:17:11;;;;;;;7.17;6.57;;;10.90;40.90;;;;;;4976840;28;20420;-84
2022/03/09 07:19:56;;;;;;;;;;;;;;;;;;;;;
2022/03/09 07:22:55;;;;;;;7.70;7.17;;;11.90;39.60;;;;;;4976814;28;20458;-85
2022/03/09 07:26:02;;;;;;;8.00;7.20;;;13.70;37.20;;;;;;4994030;28;20488;-85
2022/03/09 07:28:56;;;;;;;12.03;7.03;;;13.30;37.30;;;;;;4997204;28;20440;-84
2022/03/09 07:31:29;;;;;;;8.50;7.70;;;14.00;34.10;;;;;;4990065;28;20499;-82
2022/03/09 07:33:55;;;;;;;8.60;8.00;;;13.60;36.60;;;;;;4988418;28;20452;-82
2022/03/09 07:36:29;;;;;;;8.63;7.80;;;13.00;33.60;;;;;;4981184;28;20436;-82
2022/03/09 07:38:55;;;;;;;7.63;6.97;;;13.00;34.20;;;;;;4981438;28;20255;-82
2022/03/09 07:41:21;;;;;;;7.70;6.97;;;14.80;33.00;;;;;;4982736;28;20432;-80
2022/03/09 07:43:47;;;;;;;8.13;7.33;;;15.70;34.60;;;;;;4979852;28;20255;-83
2022/03/09 07:50:10;;;;;;;7.50;7.07;;;15.70;30.70;;;;;;4983124;28;20196;-83
2022/03/09 07:53:05;;;;;;;8.57;7.77;;;13.60;29.40;;;;;;4973494;28;20951;-85
2022/03/09 07:56:06;;;;;;;9.40;8.13;;;15.10;29.80;;;;;;4984091;28;20428;-85
2022/03/09 07:58:37;;;;;;;8.10;7.40;;;15.90;30.20;;;;;;4969542;28;20429;-84
2022/03/09 08:01:06;;;;;;;8.70;8.00;;;14.50;30.00;;;;;;4983368;28;20446;-79
2022/03/09 08:21:37;;;;;;;;;;;;;;;;;;;;;
2022/03/09 08:43:07;;;;;;;;;;;;;;;;;;;;;
2022/03/09 08:52:24;;;;;;;9.20;8.20;;;18.50;26.10;;;;;;4786656;29;20502;-86
2022/03/09 08:54:56;;;;;;;8.90;8.13;;;18.60;26.90;;;;;;4781712;29;20450;-86
2022/03/09 08:57:34;;;;;;;10.13;8.30;;;19.10;26.30;;;;;;4811310;29;20222;-87
2022/03/09 09:00:19;;;;;;;9.37;8.67;;;19.30;26.80;;;;;;4798339;29;20501;-83
2022/03/09 09:02:53;;;;;;;7.43;7.03;;;18.90;26.50;;;;;;4864852;29;20440;-85
2022/03/09 09:05:25;;;;;;;9.17;8.00;;;16.50;24.90;;;;;;4966775;28;20482;-85
2022/03/09 09:08:00;;;;;;;12.10;7.73;;;19.10;26.00;;;;;;4958669;28;20422;-85
2022/03/09 09:10:28;;;;;;;8.30;7.67;;;18.50;26.00;;;;;;4968094;28;20694;-85
2022/03/09 09:12:57;;;;;;;8.60;7.90;;;17.80;26.00;;;;;;4956514;28;20429;-84
2022/03/09 09:16:27;;;;;;;9.77;8.98;;;19.50;25.40;;;;;;4732468;27;9440475;-87
2022/03/09 09:19:00;;;;;;;8.67;8.03;;;20.00;27.00;;;;;;5010679;28;20183;-87
2022/03/09 09:21:26;;;;;;;10.00;9.20;;;20.30;26.80;;;;;;4676215;28;10000212;-87
2022/03/09 09:24:07;;;;;;;9.33;8.53;;;20.00;26.40;;;;;;5010150;28;20214;-88
2022/03/09 09:26:46;;;;;;;10.50;9.53;;;18.60;26.10;;;;;;5015144;28;20191;-86
2022/03/09 09:29:12;;;;;;;9.73;9.00;;;18.90;26.60;;;;;;5043041;28;20528;-87
2022/03/09 09:31:37;;;;;;;9.37;8.47;;;19.60;26.70;;;;;;5020487;28;20540;-85
2022/03/09 09:34:03;;;;;;;9.33;8.63;;;19.80;25.70;;;;;;5012802;28;20542;-87
2022/03/09 09:36:29;;;;;;;9.13;8.53;;;19.80;26.70;;;;;;5013575;28;20295;-86
2022/03/09 09:39:04;;;;;;;8.93;8.10;;;20.10;26.90;;;;;;5005804;28;20831;-87
2022/03/09 09:41:42;;;;;;;9.73;8.93;;;20.30;25.90;;;;;;5021466;28;20801;-85
2022/03/09 09:44:13;;;;;;;10.70;9.73;;;20.90;26.30;;;;;;5006792;28;20484;-87
2022/03/09 09:46:40;;;;;;;9.50;8.70;;;20.80;25.90;;;;;;5021098;28;20524;-87
2022/03/09 09:49:08;;;;;;;9.60;9.00;;;21.00;26.20;;;;;;5023318;28;20434;-87
2022/03/09 09:51:42;;;;;;;11.77;9.67;;;20.80;26.30;;;;;;5044345;28;20514;-86
2022/03/09 09:54:16;;;;;;;10.00;9.07;;;21.30;26.60;;;;;;5004917;28;20578;-86
2022/03/09 09:56:42;;;;;;;12.10;11.10;;;20.20;27.10;;;;;;5019532;28;20452;-88
2022/03/09 09:59:15;;;;;;;11.60;10.40;;;20.20;26.30;;;;;;5042387;28;20539;-88
2022/03/09 10:01:41;;;;;;;10.83;9.90;;;20.80;25.60;;;;;;4661708;28;10000480;-88
2022/03/09 10:04:10;;;;;;;10.00;9.10;;;20.70;25.30;;;;;;5011830;28;20657;-87
2022/03/09 10:06:37;;;;;;;10.17;9.47;;;21.30;26.40;;;;;;5010028;28;20470;-85
2022/03/09 10:09:08;;;;;;;10.00;9.30;;;22.30;26.50;;;;;;5022850;28;20475;-86
2022/03/09 10:11:54;;;;;;;11.00;9.97;;;21.90;25.60;;;;;;5017623;28;20458;-86
2022/03/09 10:14:41;;;;;;;10.10;9.20;;;22.90;24.80;;;;;;5040916;28;20484;-85
2022/03/09 10:17:21;;;;;;;11.03;9.90;;;23.20;25.20;;;;;;5039734;28;20441;-83
2022/03/09 10:19:52;;;;;;;10.77;9.63;;;23.00;25.10;;;;;;5020192;28;20881;-86
2022/03/09 10:22:30;;;;;;;11.50;10.23;;;22.60;24.90;;;;;;5010677;28;20870;-84
2022/03/09 10:25:18;;;;;;;11.40;10.40;;;22.50;25.00;;;;;;5039372;28;20854;-84
2022/03/09 10:27:55;;;;;;;11.30;10.40;;;22.40;25.10;;;;;;5017087;28;20443;-84
2022/03/09 10:30:29;;;;;;;11.63;10.43;;;21.20;24.50;;;;;;5010865;28;20431;-83
2022/03/09 10:32:58;;;;;;;9.93;9.23;;;21.60;25.00;;;;;;5031442;28;20434;-83
2022/03/09 10:35:29;;;;;;;11.50;10.60;;;21.20;24.80;;;;;;5011424;28;20588;-86
2022/03/09 10:38:03;;;;;;;10.80;9.90;;;21.10;25.70;;;;;;5041480;28;20433;-84
2022/03/09 10:40:32;;;;;;;11.47;10.43;;;21.50;25.00;;;;;;5009705;28;20512;-79
2022/03/09 10:43:18;;;;;;;11.97;11.07;;;21.20;24.80;;;;;;5027234;28;20914;-83
2022/03/09 10:46:08;;;;;;;12.90;11.87;;;21.60;25.10;;;;;;5019308;28;20724;-84
2022/03/09 10:48:54;;;;;;;12.20;11.00;;;21.90;24.60;;;;;;5045395;28;20447;-84
2022/03/09 10:51:37;;;;;;;10.90;10.10;;;21.80;24.80;;;;;;5027419;28;20465;-84
2022/03/09 10:54:19;;;;;;;11.37;10.37;;;22.00;24.60;;;;;;5029952;28;20411;-84
2022/03/09 10:56:49;;;;;;;11.77;10.67;;;22.20;24.30;;;;;;5012508;28;20423;-83
2022/03/09 10:59:18;;;;;;;11.90;10.90;;;20.50;24.30;;;;;;5011812;28;20422;-84
2022/03/09 11:02:03;;;;;;;12.13;11.10;;;21.00;25.00;;;;;;4993598;28;20509;-83
2022/03/09 11:04:29;;;;;;;12.77;11.67;;;22.40;25.00;;;;;;5011566;28;20425;-83
2022/03/09 11:06:56;;;;;;;12.00;11.00;;;22.90;24.30;;;;;;5009661;28;20423;-84
2022/03/09 11:09:22;;;;;;;11.80;10.90;;;22.80;24.70;;;;;;5030066;28;20176;-83
2022/03/09 11:11:49;;;;;;;11.37;10.57;;;22.80;25.10;;;;;;5027875;28;20423;-83
2022/03/09 11:14:17;;;;;;;11.53;10.73;;;22.50;24.10;;;;;;5012865;28;20739;-82
2022/03/09 11:16:44;;;;;;;11.73;10.70;;;24.60;25.40;;;;;;5013369;28;20434;-84
2022/03/09 11:19:10;;;;;;;12.13;11.10;;;23.10;24.10;;;;;;5026404;28;20446;-84
2022/03/09 11:21:37;;;;;;;11.80;10.80;;;22.90;24.60;;;;;;5041972;28;20507;-86
2022/03/09 11:24:13;;;;;;;11.37;10.43;;;22.80;24.60;;;;;;5009840;28;20794;-85
2022/03/09 11:26:56;;;;;;;12.80;11.53;;;23.60;24.90;;;;;;5013145;28;20537;-86
2022/03/09 11:29:31;;;;;;;12.40;11.47;;;24.50;24.10;;;;;;5001324;28;20443;-84
2022/03/09 11:32:00;;;;;;;12.00;11.07;;;24.90;24.40;;;;;;5021041;28;20477;-85
2022/03/09 11:35:11;;;;;;;12.90;11.60;;;25.30;24.70;;;;;;5009120;23;20498;-91
2022/03/09 11:37:46;;;;;;;11.67;10.87;;;25.30;24.30;;;;;;4878951;29;20939;-90
2022/03/09 11:40:17;;;;;;;12.33;11.43;;;25.30;23.80;;;;;;4960727;28;20445;-90
2022/03/09 11:42:44;;;;;;;13.27;12.20;;;25.80;25.00;;;;;;4973035;28;20426;-93
2022/03/09 11:45:29;;;;;;;11.60;10.53;;;26.80;24.80;;;;;;4996522;28;20471;-92
2022/03/09 11:48:47;;;;;;;11.70;10.80;;;25.40;24.20;;;;;;4971801;28;20761;-87
2022/03/09 11:51:16;;;;;;;12.50;11.40;;;25.70;24.00;;;;;;4961104;28;20453;-88
2022/03/09 11:54:08;;;;;;;10.73;9.93;;;24.20;23.80;;;;;;4999876;28;20871;-88
2022/03/09 11:56:54;;;;;;;11.93;11.13;;;24.50;23.80;;;;;;5009516;28;20478;-88
2022/03/09 11:59:22;;;;;;;13.17;12.07;;;24.40;24.50;;;;;;5008434;28;20523;-88
2022/03/09 12:02:45;;;;;;;12.93;11.60;;;24.30;23.90;;;;;;4973488;28;20204;-89
2022/03/09 12:05:31;;;;;;;12.33;11.37;;;24.30;23.80;;;;;;4876112;29;20571;-89
2022/03/09 12:08:09;;;;;;;11.77;10.87;;;24.10;23.30;;;;;;4911567;29;20432;-84
2022/03/09 12:10:51;;;;;;;12.50;11.50;;;24.80;23.90;;;;;;4993138;28;20480;-88
2022/03/09 12:13:34;;;;;;;11.83;10.93;;;24.70;23.50;;;;;;4980866;28;20833;-88
2022/03/09 12:16:23;;;;;;;12.50;10.90;;;25.10;23.80;;;;;;4976826;28;20452;-89
2022/03/09 12:19:17;;;;;;;11.43;10.63;;;25.20;23.50;;;;;;4984784;28;20435;-90
2022/03/09 12:21:50;;;;;;;11.50;10.60;;;24.30;23.50;;;;;;4991043;28;20458;-87
2022/03/09 12:24:22;;;;;;;12.50;11.60;;;24.30;23.60;;;;;;5012030;28;20514;-88
2022/03/09 12:26:55;;;;;;;15.67;14.40;;;25.40;24.50;;;;;;4997680;28;20506;-82
2022/03/09 12:29:34;;;;;;;14.57;12.53;;;23.00;23.40;;;;;;5016863;28;20478;-88
2022/03/09 12:32:14;;;;;;;12.23;11.23;;;22.20;22.90;;;;;;4998703;28;20416;-91
2022/03/09 12:34:41;;;;;;;13.47;12.40;;;23.30;23.80;;;;;;4988421;28;20462;-88
2022/03/09 12:37:10;;;;;;;12.97;11.70;;;24.60;24.50;;;;;;4999552;28;20969;-89
2022/03/09 12:39:37;;;;;;;16.53;13.10;;;23.30;24.10;;;;;;5011935;28;20442;-89
2022/03/09 12:42:19;;;;;;;11.03;10.23;;;23.50;23.80;;;;;;5020403;28;21020;-88
2022/03/09 12:44:50;;;;;;;13.10;11.90;;;23.00;23.10;;;;;;4998485;28;20472;-90
2022/03/09 12:47:20;;;;;;;12.07;11.20;;;24.30;23.90;;;;;;5007055;28;20491;-90
2022/03/09 12:49:55;;;;;;;12.47;11.47;;;24.40;23.50;;;;;;5029075;28;20475;-86
2022/03/09 12:52:55;;;;;;;14.47;13.17;;;24.70;23.40;;;;;;4991535;28;20464;-89
2022/03/09 12:55:24;;;;;;;15.67;11.50;;;25.10;24.20;;;;;;4994430;28;20515;-89
2022/03/09 12:57:55;;;;;;;13.10;12.10;;;25.90;25.10;;;;;;4998395;28;20473;-88
2022/03/09 13:00:25;;;;;;;13.03;11.90;;;25.10;23.30;;;;;;5016582;28;20423;-88
2022/03/09 13:03:01;;;;;;;11.87;10.97;;;24.60;23.10;;;;;;5002800;28;20458;-87
2022/03/09 13:05:31;;;;;;;13.20;12.03;;;24.20;22.90;;;;;;5006849;28;20467;-88
2022/03/09 13:08:06;;;;;;;13.67;12.37;;;25.80;24.50;;;;;;4981031;28;20428;-89
2022/03/09 13:10:39;;;;;;;12.50;11.60;;;24.40;22.90;;;;;;5013485;28;20770;-88
2022/03/09 13:13:05;;;;;;;12.37;11.37;;;24.90;23.40;;;;;;4974100;28;20428;-88
2022/03/09 13:15:42;;;;;;;12.13;11.00;;;24.50;23.10;;;;;;4978377;28;20903;-87
2022/03/09 13:18:24;;;;;;;12.60;11.50;;;24.10;23.00;;;;;;4999306;28;20510;-87
2022/03/09 13:20:54;;;;;;;12.77;11.60;;;23.30;23.20;;;;;;5013960;28;20430;-88
2022/03/09 13:23:43;;;;;;;12.40;11.10;;;23.20;23.90;;;;;;5005626;28;20962;-88
2022/03/09 13:26:42;;;;;;;12.87;11.87;;;23.30;23.70;;;;;;4997653;28;20578;-88
2022/03/09 13:29:20;;;;;;;13.93;12.67;;;22.10;23.70;;;;;;4984453;28;20476;-87
2022/03/09 13:31:53;;;;;;;13.00;11.80;;;21.80;24.00;;;;;;5018187;28;20426;-88
2022/03/09 13:34:24;;;;;;;12.97;11.27;;;20.90;24.00;;;;;;4981176;28;20468;-89
2022/03/09 13:37:10;;;;;;;13.80;12.50;;;20.30;24.40;;;;;;4984095;28;20420;-88
2022/03/09 13:39:50;;;;;;;13.57;12.23;;;20.70;24.50;;;;;;4993913;28;20448;-87
2022/03/09 13:42:36;;;;;;;12.73;11.57;;;20.90;24.00;;;;;;4969638;28;20441;-87
2022/03/09 13:45:20;;;;;;;12.60;11.50;;;22.20;23.70;;;;;;5018566;28;20909;-88
2022/03/09 13:47:54;;;;;;;11.37;10.37;;;22.40;24.10;;;;;;4982149;28;20424;-87
2022/03/09 13:50:48;;;;;;;13.27;12.13;;;22.60;24.30;;;;;;4984246;28;20455;-88
2022/03/09 13:53:39;;;;;;;12.10;10.90;;;22.20;23.90;;;;;;4985660;28;20701;-85
2022/03/09 13:56:23;;;;;;;12.50;11.30;;;22.40;23.60;;;;;;5010838;28;20480;-90
2022/03/09 13:58:54;;;;;;;13.30;12.13;;;21.70;23.10;;;;;;5005342;28;20434;-88
2022/03/09 14:04:39;;;;;;;12.63;11.63;;;23.20;23.60;;;;;;5006772;28;20464;-89
2022/03/09 14:07:05;;;;;;;12.07;10.97;;;22.50;23.30;;;;;;5013969;28;20466;-89
2022/03/09 14:09:34;;;;;;;10.93;10.03;;;22.70;24.00;;;;;;4995420;28;20428;-87